sensor_id;sensor_type;location;lat;lon;timestamp;P1;durP1;ratioP1;P2;durP2;ratioP2
325;SDS011;150;52.352;14.058;2024-01-15T00:00:46;5.55;;;3.88;;
325;SDS011;150;52.352;14.058;2024-01-15T00:03:13;6.15;;;4.85;;
325;SDS011;150;52.352;14.058;2024-01-15T00:05:41;4.88;;;4.57;;
325;SDS011;150;52.352;14.058;2024-01-15T00:08:08;6.40;;;3.65;;
325;SDS011;150;52.352;14.058;2024-01-15T00:10:35;9.50;;;5.63;;
325;SDS011;150;52.352;14.058;2024-01-15T00:13:01;8.85;;;4.88;;
325;SDS011;150;52.352;14.058;2024-01-15T00:15:28;10.30;;;4.87;;
325;SDS011;150;52.352;14.058;2024-01-15T00:17:55;6.75;;;4.25;;
325;SDS011;150;52.352;14.058;2024-01-15T00:20:22;5.82;;;4.38;;
325;SDS011;150;52.352;14.058;2024-01-15T00:22:49;5.95;;;4.30;;
325;SDS011;150;52.352;14.058;2024-01-15T00:25:16;5.70;;;4.45;;
325;SDS011;150;52.352;14.058;2024-01-15T00:27:42;8.88;;;5.28;;
325;SDS011;150;52.352;14.058;2024-01-15T00:30:09;6.87;;;5.03;;
325;SDS011;150;52.352;14.058;2024-01-15T00:32:37;7.33;;;4.50;;
325;SDS011;150;52.352;14.058;2024-01-15T00:35:04;6.93;;;3.75;;
325;SDS011;150;52.352;14.058;2024-01-15T00:37:30;7.55;;;3.25;;
325;SDS011;150;52.352;14.058;2024-01-15T00:39:58;7.10;;;4.85;;
325;SDS011;150;52.352;14.058;2024-01-15T00:42:25;5.85;;;4.13;;
325;SDS011;150;52.352;14.058;2024-01-15T00:44:52;7.25;;;4.00;;
325;SDS011;150;52.352;14.058;2024-01-15T00:47:19;7.60;;;6.30;;
325;SDS011;150;52.352;14.058;2024-01-15T00:49:45;6.90;;;4.30;;
325;SDS011;150;52.352;14.058;2024-01-15T00:52:12;5.60;;;3.97;;
325;SDS011;150;52.352;14.058;2024-01-15T00:54:38;5.35;;;3.25;;
325;SDS011;150;52.352;14.058;2024-01-15T00:57:06;6.85;;;3.25;;
325;SDS011;150;52.352;14.058;2024-01-15T00:59:33;6.88;;;4.05;;
325;SDS011;150;52.352;14.058;2024-01-15T01:02:00;7.77;;;4.00;;
325;SDS011;150;52.352;14.058;2024-01-15T01:04:27;7.80;;;6.20;;
325;SDS011;150;52.352;14.058;2024-01-15T01:06:54;5.32;;;3.28;;
325;SDS011;150;52.352;14.058;2024-01-15T01:09:20;5.43;;;4.22;;
325;SDS011;150;52.352;14.058;2024-01-15T01:11:47;7.72;;;5.32;;
325;SDS011;150;52.352;14.058;2024-01-15T01:14:14;5.22;;;4.35;;
325;SDS011;150;52.352;14.058;2024-01-15T01:16:41;6.43;;;4.05;;
325;SDS011;150;52.352;14.058;2024-01-15T01:19:08;6.82;;;4.70;;
325;SDS011;150;52.352;14.058;2024-01-15T01:21:34;6.05;;;3.58;;
325;SDS011;150;52.352;14.058;2024-01-15T01:24:01;5.10;;;3.90;;
325;SDS011;150;52.352;14.058;2024-01-15T01:26:27;6.85;;;4.05;;
325;SDS011;150;52.352;14.058;2024-01-15T01:28:54;6.20;;;4.18;;
325;SDS011;150;52.352;14.058;2024-01-15T01:31:22;8.50;;;4.05;;
325;SDS011;150;52.352;14.058;2024-01-15T01:33:49;7.03;;;4.13;;
325;SDS011;150;52.352;14.058;2024-01-15T01:36:15;5.78;;;4.72;;
325;SDS011;150;52.352;14.058;2024-01-15T01:38:42;5.97;;;4.40;;
325;SDS011;150;52.352;14.058;2024-01-15T01:41:09;6.03;;;4.00;;
325;SDS011;150;52.352;14.058;2024-01-15T01:43:36;7.00;;;4.90;;
325;SDS011;150;52.352;14.058;2024-01-15T01:46:02;7.87;;;4.20;;
325;SDS011;150;52.352;14.058;2024-01-15T01:48:30;6.53;;;4.00;;
325;SDS011;150;52.352;14.058;2024-01-15T01:50:59;7.45;;;4.85;;
325;SDS011;150;52.352;14.058;2024-01-15T01:53:28;6.72;;;4.72;;
325;SDS011;150;52.352;14.058;2024-01-15T01:55:57;7.07;;;4.30;;
325;SDS011;150;52.352;14.058;2024-01-15T01:58:24;7.05;;;4.68;;
325;SDS011;150;52.352;14.058;2024-01-15T02:00:52;7.43;;;4.65;;
325;SDS011;150;52.352;14.058;2024-01-15T02:03:19;6.70;;;3.17;;
325;SDS011;150;52.352;14.058;2024-01-15T02:05:48;7.22;;;3.85;;
325;SDS011;150;52.352;14.058;2024-01-15T02:08:15;5.18;;;3.67;;
325;SDS011;150;52.352;14.058;2024-01-15T02:10:42;8.98;;;4.35;;
325;SDS011;150;52.352;14.058;2024-01-15T02:13:08;7.22;;;5.15;;
325;SDS011;150;52.352;14.058;2024-01-15T02:15:35;5.38;;;3.10;;
325;SDS011;150;52.352;14.058;2024-01-15T02:18:03;6.10;;;3.60;;
325;SDS011;150;52.352;14.058;2024-01-15T02:20:31;7.70;;;5.07;;
325;SDS011;150;52.352;14.058;2024-01-15T02:23:06;7.13;;;4.82;;
325;SDS011;150;52.352;14.058;2024-01-15T02:25:35;8.50;;;4.22;;
325;SDS011;150;52.352;14.058;2024-01-15T02:28:02;4.72;;;4.20;;
325;SDS011;150;52.352;14.058;2024-01-15T02:30:30;7.85;;;3.75;;
325;SDS011;150;52.352;14.058;2024-01-15T02:32:57;6.43;;;4.80;;
325;SDS011;150;52.352;14.058;2024-01-15T02:35:23;7.15;;;3.85;;
325;SDS011;150;52.352;14.058;2024-01-15T02:37:50;5.95;;;3.70;;
325;SDS011;150;52.352;14.058;2024-01-15T02:40:18;8.30;;;4.40;;
325;SDS011;150;52.352;14.058;2024-01-15T02:42:44;7.70;;;4.63;;
325;SDS011;150;52.352;14.058;2024-01-15T02:45:11;5.18;;;3.10;;
325;SDS011;150;52.352;14.058;2024-01-15T02:47:37;6.72;;;3.40;;
325;SDS011;150;52.352;14.058;2024-01-15T02:50:04;5.77;;;4.90;;
325;SDS011;150;52.352;14.058;2024-01-15T02:52:32;4.97;;;4.10;;
325;SDS011;150;52.352;14.058;2024-01-15T02:54:58;4.03;;;2.97;;
325;SDS011;150;52.352;14.058;2024-01-15T02:57:26;6.72;;;4.32;;
325;SDS011;150;52.352;14.058;2024-01-15T02:59:53;6.10;;;4.13;;
325;SDS011;150;52.352;14.058;2024-01-15T03:02:19;7.95;;;4.45;;
325;SDS011;150;52.352;14.058;2024-01-15T03:04:46;5.72;;;3.60;;
325;SDS011;150;52.352;14.058;2024-01-15T03:07:12;7.22;;;4.43;;
325;SDS011;150;52.352;14.058;2024-01-15T03:09:39;5.53;;;4.20;;
325;SDS011;150;52.352;14.058;2024-01-15T03:12:06;4.97;;;3.20;;
325;SDS011;150;52.352;14.058;2024-01-15T03:14:34;6.35;;;4.28;;
325;SDS011;150;52.352;14.058;2024-01-15T03:17:01;7.00;;;3.65;;
325;SDS011;150;52.352;14.058;2024-01-15T03:19:27;5.93;;;3.40;;
325;SDS011;150;52.352;14.058;2024-01-15T03:21:55;4.90;;;3.03;;
325;SDS011;150;52.352;14.058;2024-01-15T03:24:22;7.47;;;3.70;;
325;SDS011;150;52.352;14.058;2024-01-15T03:26:48;5.75;;;3.85;;
325;SDS011;150;52.352;14.058;2024-01-15T03:29:14;4.97;;;3.42;;
325;SDS011;150;52.352;14.058;2024-01-15T03:31:42;5.10;;;2.93;;
325;SDS011;150;52.352;14.058;2024-01-15T03:34:08;2.72;;;2.53;;
325;SDS011;150;52.352;14.058;2024-01-15T03:36:35;5.50;;;3.40;;
325;SDS011;150;52.352;14.058;2024-01-15T03:39:01;4.85;;;3.25;;
325;SDS011;150;52.352;14.058;2024-01-15T03:41:28;4.70;;;3.05;;
325;SDS011;150;52.352;14.058;2024-01-15T03:43:54;3.88;;;2.90;;
325;SDS011;150;52.352;14.058;2024-01-15T03:46:21;4.93;;;3.15;;
325;SDS011;150;52.352;14.058;2024-01-15T03:48:49;6.70;;;3.70;;
325;SDS011;150;52.352;14.058;2024-01-15T03:51:16;4.65;;;3.75;;
325;SDS011;150;52.352;14.058;2024-01-15T03:53:43;4.45;;;3.53;;
325;SDS011;150;52.352;14.058;2024-01-15T03:56:10;3.17;;;2.80;;
325;SDS011;150;52.352;14.058;2024-01-15T03:58:37;5.13;;;3.45;;
325;SDS011;150;52.352;14.058;2024-01-15T04:01:03;4.93;;;3.30;;
325;SDS011;150;52.352;14.058;2024-01-15T04:03:33;5.20;;;3.70;;
325;SDS011;150;52.352;14.058;2024-01-15T04:06:01;5.40;;;3.55;;
325;SDS011;150;52.352;14.058;2024-01-15T04:08:27;7.28;;;3.40;;
325;SDS011;150;52.352;14.058;2024-01-15T04:10:54;4.60;;;3.30;;
325;SDS011;150;52.352;14.058;2024-01-15T04:13:21;4.90;;;3.00;;
325;SDS011;150;52.352;14.058;2024-01-15T04:15:47;4.20;;;2.90;;
325;SDS011;150;52.352;14.058;2024-01-15T04:18:15;5.75;;;3.20;;
325;SDS011;150;52.352;14.058;2024-01-15T04:20:42;4.88;;;3.20;;
325;SDS011;150;52.352;14.058;2024-01-15T04:23:10;4.13;;;3.55;;
325;SDS011;150;52.352;14.058;2024-01-15T04:25:37;3.90;;;2.50;;
325;SDS011;150;52.352;14.058;2024-01-15T04:28:06;6.90;;;3.13;;
325;SDS011;150;52.352;14.058;2024-01-15T04:30:32;6.30;;;3.47;;
325;SDS011;150;52.352;14.058;2024-01-15T04:32:59;3.92;;;2.55;;
325;SDS011;150;52.352;14.058;2024-01-15T04:35:25;3.92;;;2.47;;
325;SDS011;150;52.352;14.058;2024-01-15T04:37:52;4.55;;;2.88;;
325;SDS011;150;52.352;14.058;2024-01-15T04:40:20;5.20;;;2.80;;
325;SDS011;150;52.352;14.058;2024-01-15T04:42:46;4.18;;;2.70;;
325;SDS011;150;52.352;14.058;2024-01-15T04:45:13;6.65;;;3.35;;
325;SDS011;150;52.352;14.058;2024-01-15T04:47:40;3.65;;;2.78;;
325;SDS011;150;52.352;14.058;2024-01-15T04:50:07;4.07;;;2.53;;
325;SDS011;150;52.352;14.058;2024-01-15T04:52:34;6.18;;;3.55;;
325;SDS011;150;52.352;14.058;2024-01-15T04:55:00;6.13;;;4.22;;
325;SDS011;150;52.352;14.058;2024-01-15T04:57:28;4.10;;;3.00;;
325;SDS011;150;52.352;14.058;2024-01-15T04:59:55;5.68;;;3.33;;
325;SDS011;150;52.352;14.058;2024-01-15T05:02:21;5.00;;;3.00;;
325;SDS011;150;52.352;14.058;2024-01-15T05:04:48;4.95;;;2.60;;
325;SDS011;150;52.352;14.058;2024-01-15T05:07:15;3.88;;;2.38;;
325;SDS011;150;52.352;14.058;2024-01-15T05:09:41;4.20;;;2.70;;
325;SDS011;150;52.352;14.058;2024-01-15T05:12:08;4.47;;;3.08;;
325;SDS011;150;52.352;14.058;2024-01-15T05:14:35;5.43;;;2.70;;
325;SDS011;150;52.352;14.058;2024-01-15T05:17:02;3.40;;;2.10;;
325;SDS011;150;52.352;14.058;2024-01-15T05:19:29;2.90;;;1.85;;
325;SDS011;150;52.352;14.058;2024-01-15T05:21:55;5.05;;;2.50;;
325;SDS011;150;52.352;14.058;2024-01-15T05:24:22;2.70;;;2.22;;
325;SDS011;150;52.352;14.058;2024-01-15T05:26:48;3.90;;;2.28;;
325;SDS011;150;52.352;14.058;2024-01-15T05:29:15;3.50;;;2.80;;
325;SDS011;150;52.352;14.058;2024-01-15T05:31:43;2.78;;;2.30;;
325;SDS011;150;52.352;14.058;2024-01-15T05:34:09;1.80;;;1.60;;
325;SDS011;150;52.352;14.058;2024-01-15T05:36:36;4.47;;;2.10;;
325;SDS011;150;52.352;14.058;2024-01-15T05:39:03;3.33;;;2.05;;
325;SDS011;150;52.352;14.058;2024-01-15T05:41:29;2.92;;;2.10;;
325;SDS011;150;52.352;14.058;2024-01-15T05:43:56;3.40;;;1.92;;
325;SDS011;150;52.352;14.058;2024-01-15T05:46:22;4.93;;;2.70;;
325;SDS011;150;52.352;14.058;2024-01-15T05:48:50;5.03;;;1.95;;
325;SDS011;150;52.352;14.058;2024-01-15T05:51:17;4.43;;;1.80;;
325;SDS011;150;52.352;14.058;2024-01-15T05:53:43;3.63;;;1.40;;
325;SDS011;150;52.352;14.058;2024-01-15T05:56:10;2.10;;;1.73;;
325;SDS011;150;52.352;14.058;2024-01-15T05:58:37;4.20;;;2.75;;
325;SDS011;150;52.352;14.058;2024-01-15T06:01:03;3.95;;;1.98;;
325;SDS011;150;52.352;14.058;2024-01-15T06:03:30;3.10;;;2.28;;
325;SDS011;150;52.352;14.058;2024-01-15T06:05:58;2.85;;;2.38;;
325;SDS011;150;52.352;14.058;2024-01-15T06:08:24;2.28;;;2.17;;
325;SDS011;150;52.352;14.058;2024-01-15T06:10:52;2.47;;;1.80;;
325;SDS011;150;52.352;14.058;2024-01-15T06:13:19;2.70;;;2.35;;
325;SDS011;150;52.352;14.058;2024-01-15T06:15:45;4.13;;;1.90;;
325;SDS011;150;52.352;14.058;2024-01-15T06:18:12;4.20;;;1.65;;
325;SDS011;150;52.352;14.058;2024-01-15T06:20:39;8.07;;;1.48;;
325;SDS011;150;52.352;14.058;2024-01-15T06:23:06;4.45;;;1.60;;
325;SDS011;150;52.352;14.058;2024-01-15T06:25:33;4.28;;;2.60;;
325;SDS011;150;52.352;14.058;2024-01-15T06:28:00;1.98;;;1.70;;
325;SDS011;150;52.352;14.058;2024-01-15T06:30:26;5.70;;;1.85;;
325;SDS011;150;52.352;14.058;2024-01-15T06:32:55;3.55;;;1.77;;
325;SDS011;150;52.352;14.058;2024-01-15T06:35:21;2.63;;;1.60;;
325;SDS011;150;52.352;14.058;2024-01-15T06:37:48;5.95;;;1.80;;
325;SDS011;150;52.352;14.058;2024-01-15T06:40:16;2.35;;;2.20;;
325;SDS011;150;52.352;14.058;2024-01-15T06:42:42;3.58;;;3.08;;
325;SDS011;150;52.352;14.058;2024-01-15T06:45:09;6.70;;;3.55;;
325;SDS011;150;52.352;14.058;2024-01-15T06:47:35;3.60;;;2.30;;
325;SDS011;150;52.352;14.058;2024-01-15T06:50:02;8.30;;;6.00;;
325;SDS011;150;52.352;14.058;2024-01-15T06:52:29;1.92;;;1.40;;
325;SDS011;150;52.352;14.058;2024-01-15T06:54:56;4.90;;;2.60;;
325;SDS011;150;52.352;14.058;2024-01-15T06:57:24;2.60;;;1.20;;
325;SDS011;150;52.352;14.058;2024-01-15T06:59:50;2.45;;;1.38;;
325;SDS011;150;52.352;14.058;2024-01-15T07:02:17;4.38;;;1.55;;
325;SDS011;150;52.352;14.058;2024-01-15T07:04:43;3.70;;;1.10;;
325;SDS011;150;52.352;14.058;2024-01-15T07:07:10;2.53;;;1.60;;
325;SDS011;150;52.352;14.058;2024-01-15T07:09:36;4.80;;;1.73;;
325;SDS011;150;52.352;14.058;2024-01-15T07:12:03;3.33;;;1.85;;
325;SDS011;150;52.352;14.058;2024-01-15T07:14:32;2.07;;;1.93;;
325;SDS011;150;52.352;14.058;2024-01-15T07:16:58;4.37;;;1.93;;
325;SDS011;150;52.352;14.058;2024-01-15T07:19:25;5.20;;;1.65;;
325;SDS011;150;52.352;14.058;2024-01-15T07:21:51;5.85;;;1.50;;
325;SDS011;150;52.352;14.058;2024-01-15T07:24:18;1.98;;;1.67;;
325;SDS011;150;52.352;14.058;2024-01-15T07:26:44;1.60;;;1.20;;
325;SDS011;150;52.352;14.058;2024-01-15T07:29:11;5.10;;;1.20;;
325;SDS011;150;52.352;14.058;2024-01-15T07:31:39;8.40;;;1.92;;
325;SDS011;150;52.352;14.058;2024-01-15T07:34:05;6.30;;;1.10;;
325;SDS011;150;52.352;14.058;2024-01-15T07:36:32;1.98;;;1.50;;
325;SDS011;150;52.352;14.058;2024-01-15T07:38:58;3.55;;;1.13;;
325;SDS011;150;52.352;14.058;2024-01-15T07:41:25;3.50;;;1.17;;
325;SDS011;150;52.352;14.058;2024-01-15T07:43:51;2.40;;;0.80;;
325;SDS011;150;52.352;14.058;2024-01-15T07:46:18;4.10;;;1.93;;
325;SDS011;150;52.352;14.058;2024-01-15T07:48:46;5.65;;;1.25;;
325;SDS011;150;52.352;14.058;2024-01-15T07:51:12;3.23;;;1.43;;
325;SDS011;150;52.352;14.058;2024-01-15T07:53:39;3.63;;;1.40;;
325;SDS011;150;52.352;14.058;2024-01-15T07:56:05;4.60;;;1.10;;
325;SDS011;150;52.352;14.058;2024-01-15T07:58:32;1.40;;;1.13;;
325;SDS011;150;52.352;14.058;2024-01-15T08:00:59;2.85;;;1.42;;
325;SDS011;150;52.352;14.058;2024-01-15T08:03:25;1.98;;;1.10;;
325;SDS011;150;52.352;14.058;2024-01-15T08:05:53;6.68;;;4.85;;
325;SDS011;150;52.352;14.058;2024-01-15T08:08:22;7.88;;;2.35;;
325;SDS011;150;52.352;14.058;2024-01-15T08:10:49;5.75;;;3.30;;
325;SDS011;150;52.352;14.058;2024-01-15T08:13:15;4.20;;;0.60;;
325;SDS011;150;52.352;14.058;2024-01-15T08:15:42;8.50;;;1.30;;
325;SDS011;150;52.352;14.058;2024-01-15T08:18:08;2.30;;;1.10;;
325;SDS011;150;52.352;14.058;2024-01-15T08:20:35;4.20;;;1.37;;
325;SDS011;150;52.352;14.058;2024-01-15T08:23:03;2.80;;;1.30;;
325;SDS011;150;52.352;14.058;2024-01-15T08:25:30;11.27;;;2.00;;
325;SDS011;150;52.352;14.058;2024-01-15T08:27:56;1.40;;;0.73;;
325;SDS011;150;52.352;14.058;2024-01-15T08:30:23;2.03;;;1.20;;
325;SDS011;150;52.352;14.058;2024-01-15T08:32:52;2.78;;;1.40;;
325;SDS011;150;52.352;14.058;2024-01-15T08:35:19;3.10;;;0.70;;
325;SDS011;150;52.352;14.058;2024-01-15T08:37:47;6.50;;;1.35;;
325;SDS011;150;52.352;14.058;2024-01-15T08:40:15;9.02;;;1.60;;
325;SDS011;150;52.352;14.058;2024-01-15T08:42:42;2.53;;;0.90;;
325;SDS011;150;52.352;14.058;2024-01-15T08:45:09;3.70;;;1.48;;
325;SDS011;150;52.352;14.058;2024-01-15T08:47:35;2.63;;;1.85;;
325;SDS011;150;52.352;14.058;2024-01-15T08:50:02;6.65;;;1.85;;
325;SDS011;150;52.352;14.058;2024-01-15T08:52:30;4.53;;;1.20;;
325;SDS011;150;52.352;14.058;2024-01-15T08:54:56;1.70;;;1.10;;
325;SDS011;150;52.352;14.058;2024-01-15T08:57:24;3.23;;;1.13;;
325;SDS011;150;52.352;14.058;2024-01-15T08:59:51;3.53;;;1.07;;
325;SDS011;150;52.352;14.058;2024-01-15T09:02:17;1.70;;;0.82;;
325;SDS011;150;52.352;14.058;2024-01-15T09:04:44;1.65;;;1.02;;
325;SDS011;150;52.352;14.058;2024-01-15T09:07:10;4.43;;;1.35;;
325;SDS011;150;52.352;14.058;2024-01-15T09:09:37;3.33;;;0.88;;
325;SDS011;150;52.352;14.058;2024-01-15T09:12:04;7.20;;;1.70;;
325;SDS011;150;52.352;14.058;2024-01-15T09:14:32;2.38;;;1.30;;
325;SDS011;150;52.352;14.058;2024-01-15T09:16:59;3.30;;;1.20;;
325;SDS011;150;52.352;14.058;2024-01-15T09:19:25;2.90;;;1.10;;
325;SDS011;150;52.352;14.058;2024-01-15T09:21:52;5.55;;;1.98;;
325;SDS011;150;52.352;14.058;2024-01-15T09:24:18;7.03;;;1.60;;
325;SDS011;150;52.352;14.058;2024-01-15T09:26:45;3.60;;;1.10;;
325;SDS011;150;52.352;14.058;2024-01-15T09:29:11;1.40;;;1.00;;
325;SDS011;150;52.352;14.058;2024-01-15T09:31:42;3.38;;;2.40;;
325;SDS011;150;52.352;14.058;2024-01-15T09:34:08;4.20;;;2.30;;
325;SDS011;150;52.352;14.058;2024-01-15T09:36:38;5.80;;;5.40;;
325;SDS011;150;52.352;14.058;2024-01-15T09:39:05;4.03;;;1.42;;
325;SDS011;150;52.352;14.058;2024-01-15T09:41:33;3.00;;;0.85;;
325;SDS011;150;52.352;14.058;2024-01-15T09:44:00;3.33;;;1.75;;
325;SDS011;150;52.352;14.058;2024-01-15T09:46:27;1.38;;;1.35;;
325;SDS011;150;52.352;14.058;2024-01-15T09:48:55;3.33;;;1.73;;
325;SDS011;150;52.352;14.058;2024-01-15T09:51:22;3.08;;;0.90;;
325;SDS011;150;52.352;14.058;2024-01-15T09:53:50;1.17;;;0.80;;
325;SDS011;150;52.352;14.058;2024-01-15T09:56:17;4.70;;;1.70;;
325;SDS011;150;52.352;14.058;2024-01-15T09:58:44;4.20;;;1.80;;
325;SDS011;150;52.352;14.058;2024-01-15T10:01:10;3.40;;;1.60;;
325;SDS011;150;52.352;14.058;2024-01-15T10:03:40;7.73;;;1.93;;
325;SDS011;150;52.352;14.058;2024-01-15T10:06:08;7.65;;;1.67;;
325;SDS011;150;52.352;14.058;2024-01-15T10:08:37;1.20;;;0.90;;
325;SDS011;150;52.352;14.058;2024-01-15T10:11:04;5.70;;;1.40;;
325;SDS011;150;52.352;14.058;2024-01-15T10:13:31;4.10;;;1.90;;
325;SDS011;150;52.352;14.058;2024-01-15T10:16:00;3.13;;;1.10;;
325;SDS011;150;52.352;14.058;2024-01-15T10:18:28;1.70;;;1.50;;
325;SDS011;150;52.352;14.058;2024-01-15T10:20:54;2.63;;;1.20;;
325;SDS011;150;52.352;14.058;2024-01-15T10:23:23;2.40;;;1.10;;
325;SDS011;150;52.352;14.058;2024-01-15T10:25:50;2.25;;;1.05;;
325;SDS011;150;52.352;14.058;2024-01-15T10:28:17;2.53;;;1.35;;
325;SDS011;150;52.352;14.058;2024-01-15T10:30:45;1.13;;;0.80;;
325;SDS011;150;52.352;14.058;2024-01-15T10:33:12;2.20;;;1.13;;
325;SDS011;150;52.352;14.058;2024-01-15T10:35:40;2.22;;;1.67;;
325;SDS011;150;52.352;14.058;2024-01-15T10:38:07;5.35;;;2.45;;
325;SDS011;150;52.352;14.058;2024-01-15T10:40:35;7.20;;;1.80;;
325;SDS011;150;52.352;14.058;2024-01-15T10:43:02;5.00;;;1.63;;
325;SDS011;150;52.352;14.058;2024-01-15T10:45:29;2.30;;;1.60;;
325;SDS011;150;52.352;14.058;2024-01-15T10:47:55;2.65;;;1.67;;
325;SDS011;150;52.352;14.058;2024-01-15T10:50:23;1.40;;;0.90;;
325;SDS011;150;52.352;14.058;2024-01-15T10:52:50;3.58;;;1.38;;
325;SDS011;150;52.352;14.058;2024-01-15T10:55:18;7.40;;;1.40;;
325;SDS011;150;52.352;14.058;2024-01-15T10:57:46;6.93;;;1.30;;
325;SDS011;150;52.352;14.058;2024-01-15T11:00:15;7.90;;;2.20;;
325;SDS011;150;52.352;14.058;2024-01-15T11:02:42;1.55;;;1.38;;
325;SDS011;150;52.352;14.058;2024-01-15T11:05:09;2.97;;;1.98;;
325;SDS011;150;52.352;14.058;2024-01-15T11:07:36;2.10;;;1.30;;
325;SDS011;150;52.352;14.058;2024-01-15T11:10:06;3.13;;;1.67;;
325;SDS011;150;52.352;14.058;2024-01-15T11:12:35;6.10;;;1.50;;
325;SDS011;150;52.352;14.058;2024-01-15T11:15:03;1.70;;;1.10;;
325;SDS011;150;52.352;14.058;2024-01-15T11:20:25;3.65;;;1.20;;
325;SDS011;150;52.352;14.058;2024-01-15T11:22:51;3.70;;;1.52;;
325;SDS011;150;52.352;14.058;2024-01-15T11:25:18;4.00;;;1.77;;
325;SDS011;150;52.352;14.058;2024-01-15T11:27:45;1.48;;;1.17;;
325;SDS011;150;52.352;14.058;2024-01-15T11:30:16;4.60;;;1.13;;
325;SDS011;150;52.352;14.058;2024-01-15T11:32:44;3.60;;;1.42;;
325;SDS011;150;52.352;14.058;2024-01-15T11:35:12;1.90;;;1.20;;
325;SDS011;150;52.352;14.058;2024-01-15T11:37:58;4.22;;;1.25;;
325;SDS011;150;52.352;14.058;2024-01-15T11:40:36;2.40;;;1.40;;
325;SDS011;150;52.352;14.058;2024-01-15T11:43:04;3.80;;;2.00;;
325;SDS011;150;52.352;14.058;2024-01-15T11:45:33;2.70;;;1.75;;
325;SDS011;150;52.352;14.058;2024-01-15T11:48:06;2.08;;;1.48;;
325;SDS011;150;52.352;14.058;2024-01-15T11:50:35;4.97;;;2.20;;
325;SDS011;150;52.352;14.058;2024-01-15T11:53:13;2.40;;;1.70;;
325;SDS011;150;52.352;14.058;2024-01-15T11:55:52;5.93;;;2.17;;
325;SDS011;150;52.352;14.058;2024-01-15T11:58:22;6.50;;;1.57;;
325;SDS011;150;52.352;14.058;2024-01-15T12:00:51;4.00;;;1.50;;
325;SDS011;150;52.352;14.058;2024-01-15T12:03:20;1.90;;;1.00;;
325;SDS011;150;52.352;14.058;2024-01-15T12:05:47;3.17;;;0.82;;
325;SDS011;150;52.352;14.058;2024-01-15T12:08:13;2.10;;;1.10;;
325;SDS011;150;52.352;14.058;2024-01-15T12:10:40;3.58;;;2.10;;
325;SDS011;150;52.352;14.058;2024-01-15T12:13:09;3.53;;;1.20;;
325;SDS011;150;52.352;14.058;2024-01-15T12:15:36;3.85;;;1.30;;
325;SDS011;150;52.352;14.058;2024-01-15T12:18:07;2.70;;;1.00;;
325;SDS011;150;52.352;14.058;2024-01-15T12:20:35;4.22;;;1.63;;
325;SDS011;150;52.352;14.058;2024-01-15T12:23:02;1.30;;;1.17;;
325;SDS011;150;52.352;14.058;2024-01-15T12:25:29;2.58;;;1.10;;
325;SDS011;150;52.352;14.058;2024-01-15T12:27:57;1.23;;;1.08;;
325;SDS011;150;52.352;14.058;2024-01-15T12:30:25;1.30;;;0.98;;
325;SDS011;150;52.352;14.058;2024-01-15T12:32:51;4.45;;;1.67;;
325;SDS011;150;52.352;14.058;2024-01-15T12:35:19;2.63;;;1.10;;
325;SDS011;150;52.352;14.058;2024-01-15T12:37:47;2.75;;;1.20;;
325;SDS011;150;52.352;14.058;2024-01-15T12:40:13;3.80;;;1.40;;
325;SDS011;150;52.352;14.058;2024-01-15T12:42:45;1.77;;;1.17;;
325;SDS011;150;52.352;14.058;2024-01-15T12:45:11;2.25;;;1.25;;
325;SDS011;150;52.352;14.058;2024-01-15T12:47:39;2.85;;;1.45;;
325;SDS011;150;52.352;14.058;2024-01-15T12:50:06;4.43;;;1.13;;
325;SDS011;150;52.352;14.058;2024-01-15T12:52:34;1.92;;;1.38;;
325;SDS011;150;52.352;14.058;2024-01-15T12:55:03;1.40;;;1.05;;
325;SDS011;150;52.352;14.058;2024-01-15T12:57:34;8.13;;;5.18;;
325;SDS011;150;52.352;14.058;2024-01-15T13:00:00;6.50;;;4.57;;
325;SDS011;150;52.352;14.058;2024-01-15T13:02:27;6.32;;;3.40;;
325;SDS011;150;52.352;14.058;2024-01-15T13:04:54;3.05;;;1.80;;
325;SDS011;150;52.352;14.058;2024-01-15T13:07:21;1.90;;;1.70;;
325;SDS011;150;52.352;14.058;2024-01-15T13:09:48;0.90;;;0.77;;
325;SDS011;150;52.352;14.058;2024-01-15T13:12:18;1.55;;;0.90;;
325;SDS011;150;52.352;14.058;2024-01-15T13:14:45;1.40;;;0.77;;
325;SDS011;150;52.352;14.058;2024-01-15T13:17:12;2.13;;;1.20;;
325;SDS011;150;52.352;14.058;2024-01-15T13:19:39;0.90;;;0.60;;
325;SDS011;150;52.352;14.058;2024-01-15T13:22:06;1.45;;;1.00;;
325;SDS011;150;52.352;14.058;2024-01-15T13:24:34;2.90;;;2.20;;
325;SDS011;150;52.352;14.058;2024-01-15T13:27:02;2.28;;;1.60;;
325;SDS011;150;52.352;14.058;2024-01-15T13:29:29;1.48;;;0.55;;
325;SDS011;150;52.352;14.058;2024-01-15T13:31:56;2.95;;;0.50;;
325;SDS011;150;52.352;14.058;2024-01-15T13:34:23;1.40;;;0.90;;
325;SDS011;150;52.352;14.058;2024-01-15T13:36:49;2.80;;;0.63;;
325;SDS011;150;52.352;14.058;2024-01-15T13:39:16;1.02;;;0.52;;
325;SDS011;150;52.352;14.058;2024-01-15T13:41:45;1.30;;;0.60;;
325;SDS011;150;52.352;14.058;2024-01-15T13:44:13;1.05;;;0.52;;
325;SDS011;150;52.352;14.058;2024-01-15T13:46:40;2.00;;;0.60;;
325;SDS011;150;52.352;14.058;2024-01-15T13:49:06;1.73;;;0.75;;
325;SDS011;150;52.352;14.058;2024-01-15T13:51:34;0.90;;;0.57;;
325;SDS011;150;52.352;14.058;2024-01-15T13:54:01;1.20;;;0.60;;
325;SDS011;150;52.352;14.058;2024-01-15T13:56:29;1.30;;;0.68;;
325;SDS011;150;52.352;14.058;2024-01-15T13:58:57;1.10;;;0.60;;
325;SDS011;150;52.352;14.058;2024-01-15T14:01:25;0.80;;;0.50;;
325;SDS011;150;52.352;14.058;2024-01-15T14:03:53;0.80;;;0.40;;
325;SDS011;150;52.352;14.058;2024-01-15T14:06:20;1.50;;;1.00;;
325;SDS011;150;52.352;14.058;2024-01-15T14:08:46;1.80;;;0.60;;
325;SDS011;150;52.352;14.058;2024-01-15T14:11:13;2.28;;;1.30;;
325;SDS011;150;52.352;14.058;2024-01-15T14:13:39;2.17;;;1.40;;
325;SDS011;150;52.352;14.058;2024-01-15T14:16:06;4.60;;;1.40;;
325;SDS011;150;52.352;14.058;2024-01-15T14:18:34;1.00;;;0.70;;
325;SDS011;150;52.352;14.058;2024-01-15T14:21:00;2.78;;;0.85;;
325;SDS011;150;52.352;14.058;2024-01-15T14:23:27;2.17;;;0.90;;
325;SDS011;150;52.352;14.058;2024-01-15T14:25:53;1.47;;;0.87;;
325;SDS011;150;52.352;14.058;2024-01-15T14:28:20;1.20;;;0.80;;
325;SDS011;150;52.352;14.058;2024-01-15T14:30:48;3.88;;;1.30;;
325;SDS011;150;52.352;14.058;2024-01-15T14:33:14;1.80;;;1.02;;
325;SDS011;150;52.352;14.058;2024-01-15T14:35:42;1.00;;;0.70;;
325;SDS011;150;52.352;14.058;2024-01-15T14:38:09;3.50;;;1.30;;
325;SDS011;150;52.352;14.058;2024-01-15T14:40:35;1.67;;;0.93;;
325;SDS011;150;52.352;14.058;2024-01-15T14:43:02;3.50;;;0.80;;
325;SDS011;150;52.352;14.058;2024-01-15T14:45:29;4.05;;;0.95;;
325;SDS011;150;52.352;14.058;2024-01-15T14:47:55;3.38;;;0.85;;
325;SDS011;150;52.352;14.058;2024-01-15T14:50:23;1.48;;;1.10;;
325;SDS011;150;52.352;14.058;2024-01-15T14:52:51;1.15;;;0.95;;
325;SDS011;150;52.352;14.058;2024-01-15T14:55:18;5.60;;;1.40;;
325;SDS011;150;52.352;14.058;2024-01-15T14:57:48;3.90;;;0.88;;
325;SDS011;150;52.352;14.058;2024-01-15T15:00:14;5.38;;;3.97;;
325;SDS011;150;52.352;14.058;2024-01-15T15:02:41;1.35;;;0.73;;
325;SDS011;150;52.352;14.058;2024-01-15T15:05:08;1.30;;;1.00;;
325;SDS011;150;52.352;14.058;2024-01-15T15:07:35;1.30;;;1.02;;
325;SDS011;150;52.352;14.058;2024-01-15T15:10:03;1.70;;;1.10;;
325;SDS011;150;52.352;14.058;2024-01-15T15:12:31;3.53;;;1.17;;
325;SDS011;150;52.352;14.058;2024-01-15T15:14:57;3.30;;;0.90;;
325;SDS011;150;52.352;14.058;2024-01-15T15:17:24;1.00;;;0.60;;
325;SDS011;150;52.352;14.058;2024-01-15T15:19:51;1.45;;;1.02;;
325;SDS011;150;52.352;14.058;2024-01-15T15:22:19;1.35;;;1.00;;
325;SDS011;150;52.352;14.058;2024-01-15T15:24:46;1.00;;;0.65;;
325;SDS011;150;52.352;14.058;2024-01-15T15:27:14;2.58;;;1.00;;
325;SDS011;150;52.352;14.058;2024-01-15T15:29:41;3.00;;;1.10;;
325;SDS011;150;52.352;14.058;2024-01-15T15:32:07;1.50;;;0.90;;